Time;durP1;ratioP1;P1;durP2;ratioP2;P2;SDS_P1;SDS_P2;PMS_P1;PMS_P2;Temp;Humidity;BMP_temperature;BMP_pressure;BME280_temperature;BME280_humidity;BME280_pressure;Samples;Min_cycle;Max_cycle;Signal;HPM_P1;HPM_P2
2021/09/07 00:00:26;;;;;;;41.83;19.70;;;;;;;15.65;92.71;102554.22;5051756;28;20248;-69
2021/09/07 00:02:54;;;;;;;46.05;21.55;;;;;;;15.65;92.93;102546.16;5047595;28;20351;-69
2021/09/07 00:05:22;;;;;;;41.80;20.98;;;;;;;15.62;91.67;102552.47;5049903;28;20052;-68
2021/09/07 00:07:50;;;;;;;45.78;21.15;;;;;;;15.60;92.61;102542.69;5051923;28;20051;-68
2021/09/07 00:10:18;;;;;;;50.10;24.17;;;;;;;15.61;94.28;102544.44;5050137;28;20087;-65
2021/09/07 00:12:46;;;;;;;42.97;20.45;;;;;;;15.62;93.66;102543.53;5050197;28;20053;-65
2021/09/07 00:15:16;;;;;;;44.33;21.52;;;;;;;15.61;94.04;102547.13;5052333;28;20056;-66
2021/09/07 00:17:45;;;;;;;41.85;21.63;;;;;;;15.58;93.75;102540.03;5050765;28;20060;-65
2021/09/07 00:20:15;;;;;;;48.67;22.08;;;;;;;15.57;93.58;102537.38;5048039;28;20049;-66
2021/09/07 00:22:43;;;;;;;45.25;22.67;;;;;;;15.59;93.81;102544.47;5050701;28;20248;-70
2021/09/07 00:25:12;;;;;;;49.22;22.75;;;;;;;15.57;93.76;102534.69;5047871;28;20086;-69
2021/09/07 00:27:40;;;;;;;49.08;22.95;;;;;;;15.55;95.01;102534.75;5049801;28;20045;-69
2021/09/07 00:30:09;;;;;;;43.38;22.10;;;;;;;15.53;94.95;102535.69;5047093;28;20159;-69
2021/09/07 00:32:36;;;;;;;48.42;23.63;;;;;;;15.51;94.61;102533.06;5046871;28;20053;-69
2021/09/07 00:35:07;;;;;;;51.08;24.42;;;;;;;15.50;95.17;102528.59;5048589;28;20511;-69
2021/09/07 00:37:36;;;;;;;47.95;24.73;;;;;;;15.47;95.27;102529.53;5048555;28;20048;-69
2021/09/07 00:40:05;;;;;;;49.03;22.08;;;;;;;15.46;95.63;102533.16;5050060;28;20090;-69
2021/09/07 00:42:34;;;;;;;48.13;24.08;;;;;;;15.44;95.46;102534.13;5049725;28;20073;-69
2021/09/07 00:45:02;;;;;;;49.45;23.38;;;;;;;15.45;94.72;102530.53;5050313;28;20073;-69
2021/09/07 00:47:31;;;;;;;44.35;20.92;;;;;;;15.43;95.02;102525.16;5050420;28;20052;-69
2021/09/07 00:49:58;;;;;;;45.35;22.17;;;;;;;15.41;95.33;102516.28;5048375;28;20263;-64
2021/09/07 00:52:28;;;;;;;49.92;23.25;;;;;;;15.41;95.73;102512.66;5053462;28;20190;-69
2021/09/07 00:54:57;;;;;;;48.25;22.48;;;;;;;15.41;94.89;102516.28;5051584;28;20045;-64
2021/09/07 00:57:25;;;;;;;45.00;22.70;;;;;;;15.42;94.49;102517.16;5050728;28;20122;-64
2021/09/07 00:59:53;;;;;;;45.63;22.13;;;;;;;15.40;94.29;102516.31;5047221;28;20477;-64
2021/09/07 01:02:21;;;;;;;48.70;22.83;;;;;;;15.39;94.15;102510.06;5048235;28;20084;-64
2021/09/07 01:04:49;;;;;;;48.80;22.65;;;;;;;15.34;93.13;102516.44;5052024;28;20131;-64
2021/09/07 01:07:18;;;;;;;44.78;21.65;;;;;;;15.33;94.35;102507.50;5049988;28;20581;-65
2021/09/07 01:09:48;;;;;;;42.13;19.27;;;;;;;15.29;93.54;102508.53;5046683;28;20075;-66
2021/09/07 01:12:16;;;;;;;46.65;22.38;;;;;;;15.28;93.74;102504.06;5049535;28;20045;-64
2021/09/07 01:14:44;;;;;;;45.25;22.23;;;;;;;15.26;93.11;102501.41;5049152;28;20059;-65
2021/09/07 01:17:14;;;;;;;46.28;21.63;;;;;;;15.21;92.82;102508.69;5048639;28;20723;-65
2021/09/07 01:19:43;;;;;;;41.65;21.05;;;;;;;15.16;92.47;102505.25;5051876;28;20545;-65
2021/09/07 01:22:11;;;;;;;43.60;21.85;;;;;;;15.11;93.60;102505.34;5047032;28;20053;-65
2021/09/07 01:24:41;;;;;;;42.33;20.17;;;;;;;15.09;94.47;102501.81;5050834;28;20067;-65
2021/09/07 01:27:09;;;;;;;48.15;23.42;;;;;;;15.04;93.96;102502.88;5047487;28;20484;-65
2021/09/07 01:29:40;;;;;;;43.63;22.25;;;;;;;14.98;93.54;102503.88;5046315;28;20060;-65
2021/09/07 01:32:10;;;;;;;43.30;21.15;;;;;;;14.98;94.24;102508.38;5047441;28;20052;-69
2021/09/07 01:34:40;;;;;;;44.47;18.95;;;;;;;14.95;94.47;102495.91;5054556;28;20131;-69
2021/09/07 01:37:09;;;;;;;44.75;21.25;;;;;;;14.93;94.47;102501.31;5053616;28;20540;-69
2021/09/07 01:39:37;;;;;;;48.08;22.10;;;;;;;14.88;94.43;102500.56;5055150;28;20055;-69
2021/09/07 01:42:07;;;;;;;44.03;22.45;;;;;;;14.85;94.99;102497.94;5057225;28;20480;-69
2021/09/07 01:44:42;;;;;;;44.70;21.70;;;;;;;14.85;95.17;102495.25;5054662;28;20067;-69
2021/09/07 01:47:10;;;;;;;48.58;23.35;;;;;;;14.85;95.95;102497.94;5047936;28;20052;-65
2021/09/07 01:49:40;;;;;;;43.40;21.20;;;;;;;14.83;95.11;102497.09;5052876;28;20072;-65
2021/09/07 01:52:10;;;;;;;39.63;20.98;;;;;;;14.81;95.35;102498.91;5052609;28;20507;-65
2021/09/07 01:54:42;;;;;;;43.03;21.35;;;;;;;14.77;93.72;102496.34;5054970;28;20060;-65
2021/09/07 01:57:12;;;;;;;43.78;20.15;;;;;;;14.77;95.29;102496.34;5050348;28;20049;-64
2021/09/07 01:59:40;;;;;;;44.28;21.38;;;;;;;14.73;94.54;102495.53;5052351;28;20052;-65
2021/09/07 02:02:09;;;;;;;50.28;22.83;;;;;;;14.69;95.03;102497.41;5053371;28;20048;-65
2021/09/07 02:04:37;;;;;;;47.78;21.83;;;;;;;14.66;94.96;102499.25;5055422;28;20168;-65
2021/09/07 02:07:05;;;;;;;45.60;21.98;;;;;;;14.59;94.44;102494.94;5052502;28;20178;-64
2021/09/07 02:09:33;;;;;;;41.97;20.55;;;;;;;14.54;93.97;102498.59;5053754;28;20055;-64
2021/09/07 02:12:01;;;;;;;46.80;21.33;;;;;;;14.50;94.82;102506.75;5050782;28;20174;-66
2021/09/07 02:14:30;;;;;;;50.15;21.80;;;;;;;14.48;95.23;102501.41;5054656;28;20080;-64
2021/09/07 02:16:58;;;;;;;50.97;23.77;;;;;;;14.47;96.47;102498.75;5050357;28;20098;-64
2021/09/07 02:19:26;;;;;;;45.85;23.80;;;;;;;14.43;96.11;102503.31;5054340;28;20470;-64
2021/09/07 02:21:54;;;;;;;49.97;22.15;;;;;;;14.45;96.71;102505.97;5050084;28;20479;-65
2021/09/07 02:24:22;;;;;;;42.35;22.90;;;;;;;14.40;96.63;102492.63;5051643;28;20771;-69
2021/09/07 02:26:50;;;;;;;46.55;23.05;;;;;;;14.41;97.33;102501.59;5054339;28;20067;-69
2021/09/07 02:29:18;;;;;;;45.80;21.70;;;;;;;14.38;95.87;102492.66;5050050;28;20087;-69
2021/09/07 02:31:47;;;;;;;43.30;19.98;;;;;;;14.37;96.62;102492.72;5055343;28;20045;-69
2021/09/07 02:34:15;;;;;;;45.83;21.70;;;;;;;14.34;97.38;102490.97;5049850;28;20049;-69
2021/09/07 02:36:43;;;;;;;50.00;21.33;;;;;;;14.36;97.38;102496.31;5054652;28;20052;-69
2021/09/07 02:39:12;;;;;;;42.97;20.35;;;;;;;14.34;97.12;102488.28;5048215;28;21427;-69
2021/09/07 02:41:39;;;;;;;43.80;22.00;;;;;;;14.30;97.36;102491.97;5051165;28;20098;-69
2021/09/07 02:44:07;;;;;;;50.08;22.77;;;;;;;14.32;97.41;102499.97;5052154;28;20114;-69
2021/09/07 02:46:35;;;;;;;43.78;22.25;;;;;;;14.30;97.39;102497.34;5049829;28;20119;-69
2021/09/07 02:49:05;;;;;;;49.55;21.92;;;;;;;14.29;97.41;102489.31;5047416;28;20056;-69
2021/09/07 02:51:35;;;;;;;43.70;21.02;;;;;;;14.26;96.82;102495.63;5049576;28;20053;-65
2021/09/07 02:54:03;;;;;;;48.78;23.00;;;;;;;14.24;96.95;102493.91;5049855;28;20098;-65
2021/09/07 02:56:31;;;;;;;48.97;22.60;;;;;;;14.20;97.22;102496.66;5047506;28;20466;-65
2021/09/07 02:58:58;;;;;;;46.60;20.60;;;;;;;14.13;96.23;102491.41;5051510;28;20131;-65
2021/09/07 03:01:26;;;;;;;47.90;21.95;;;;;;;14.13;95.82;102486.06;5052961;28;20079;-65
2021/09/07 03:03:55;;;;;;;43.72;19.63;;;;;;;14.13;96.33;102480.69;5051620;28;20049;-65
2021/09/07 03:06:24;;;;;;;48.80;23.27;;;;;;;14.11;97.14;102480.72;5053763;28;21350;-65
2021/09/07 03:08:52;;;;;;;46.28;21.52;;;;;;;14.08;96.46;102483.50;5048258;28;20080;-66
2021/09/07 03:11:20;;;;;;;50.15;23.98;;;;;;;14.08;98.36;102480.81;5052131;28;20082;-64
2021/09/07 03:13:48;;;;;;;55.67;25.75;;;;;;;14.08;98.92;102485.25;5048675;28;20060;-65
2021/09/07 03:16:15;;;;;;;49.03;23.40;;;;;;;14.06;98.68;102482.59;5050693;28;20055;-65
2021/09/07 03:18:43;;;;;;;49.38;23.48;;;;;;;14.05;98.12;102478.19;5055510;28;20480;-65
2021/09/07 03:21:11;;;;;;;47.20;24.13;;;;;;;14.03;98.27;102469.28;5048365;28;20052;-65
2021/09/07 03:23:40;;;;;;;53.42;25.63;;;;;;;14.04;98.86;102483.56;5053284;28;20551;-64
2021/09/07 03:26:09;;;;;;;47.30;22.90;;;;;;;14.04;98.01;102480.88;5048368;28;20060;-65
2021/09/07 03:28:36;;;;;;;54.88;25.02;;;;;;;14.05;98.93;102478.19;5050266;28;20044;-64
2021/09/07 03:31:04;;;;;;;49.95;24.30;;;;;;;14.05;99.02;102474.63;5051149;28;20105;-64
2021/09/07 03:33:32;;;;;;;54.22;24.27;;;;;;;14.06;98.72;102476.38;5051189;28;20557;-65
2021/09/07 03:36:00;;;;;;;51.13;24.15;;;;;;;14.05;99.21;102466.56;5050423;28;20052;-65
2021/09/07 03:38:28;;;;;;;53.83;24.10;;;;;;;14.04;99.34;102468.34;5049831;28;20044;-65
2021/09/07 03:40:57;;;;;;;53.88;26.23;;;;;;;14.03;99.45;102474.66;5050999;28;20052;-65
2021/09/07 03:43:25;;;;;;;52.53;23.80;;;;;;;13.99;99.30;102472.91;5050856;28;20090;-65
2021/09/07 03:45:52;;;;;;;55.00;25.10;;;;;;;13.97;98.88;102470.28;5053069;28;20051;-65
2021/09/07 03:48:20;;;;;;;53.13;25.17;;;;;;;13.99;99.30;102475.59;5048343;28;20385;-64
2021/09/07 03:50:48;;;;;;;51.28;25.08;;;;;;;13.97;99.46;102470.28;5048199;28;20060;-65
2021/09/07 03:53:16;;;;;;;47.35;22.83;;;;;;;13.93;98.80;102473.94;5052955;28;20708;-65
2021/09/07 03:55:43;;;;;;;51.53;23.90;;;;;;;13.90;99.10;102470.44;5044034;28;20586;-65
2021/09/07 03:58:12;;;;;;;57.17;25.15;;;;;;;13.88;99.80;102473.16;5051297;28;20076;-64
2021/09/07 04:00:40;;;;;;;55.22;25.65;;;;;;;13.84;99.27;102471.44;5056866;28;20488;-66
2021/09/07 04:03:13;;;;;;;57.90;25.90;;;;;;;13.83;98.81;102472.34;5048018;28;20056;-65
2021/09/07 04:05:41;;;;;;;52.38;26.25;;;;;;;13.83;99.52;102467.00;5051457;28;20121;-66
2021/09/07 04:08:09;;;;;;;55.60;24.50;;;;;;;13.85;100.00;102461.59;5046976;28;20055;-66
2021/09/07 04:10:37;;;;;;;54.22;24.85;;;;;;;13.85;99.55;102473.22;5046713;28;20037;-66
2021/09/07 04:13:05;;;;;;;53.53;24.75;;;;;;;13.82;99.61;102460.75;5048222;28;20060;-66
2021/09/07 04:15:35;;;;;;;53.72;25.02;;;;;;;13.82;99.81;102465.22;5046562;28;20056;-66
2021/09/07 04:18:03;;;;;;;54.53;26.67;;;;;;;13.87;100.00;102460.63;5048190;28;20065;-65
2021/09/07 04:20:31;;;;;;;53.25;25.85;;;;;;;13.83;99.98;102461.63;5049349;28;20072;-66
2021/09/07 04:22:59;;;;;;;61.03;27.10;;;;;;;13.85;100.00;102466.97;5049337;28;20649;-66
2021/09/07 04:25:27;;;;;;;54.10;23.73;;;;;;;13.82;99.20;102473.25;5051516;28;20431;-66
2021/09/07 04:27:54;;;;;;;55.03;23.80;;;;;;;13.82;99.10;102475.94;5050057;28;20053;-66
2021/09/07 04:30:22;;;;;;;53.70;25.48;;;;;;;13.81;100.00;102477.75;5049516;28;20060;-66
2021/09/07 04:32:52;;;;;;;51.40;24.25;;;;;;;13.81;100.00;102482.25;5049851;28;20079;-65
2021/09/07 04:35:19;;;;;;;57.00;25.15;;;;;;;13.82;100.00;102484.00;5050993;28;20052;-67
2021/09/07 04:37:47;;;;;;;59.13;26.90;;;;;;;13.81;100.00;102487.59;5045051;28;20049;-65
2021/09/07 04:40:16;;;;;;;61.63;27.00;;;;;;;13.82;100.00;102484.00;5049686;28;20157;-65
2021/09/07 04:42:44;;;;;;;61.55;28.15;;;;;;;13.81;100.00;102482.25;5051838;28;20574;-66
2021/09/07 04:45:12;;;;;;;58.45;24.70;;;;;;;13.79;100.00;102486.72;5046558;28;20056;-68
2021/09/07 04:47:40;;;;;;;51.90;22.95;;;;;;;13.79;100.00;102484.94;5048292;28;20558;-65
2021/09/07 04:50:10;;;;;;;52.03;24.58;;;;;;;13.81;100.00;102482.25;5047013;28;20083;-66
2021/09/07 04:52:38;;;;;;;50.10;24.25;;;;;;;13.80;100.00;102480.47;5050852;28;20409;-69
2021/09/07 04:55:07;;;;;;;56.05;23.60;;;;;;;13.80;100.00;102485.81;5052199;28;20904;-69
2021/09/07 04:57:36;;;;;;;53.97;24.38;;;;;;;13.78;100.00;102488.53;5047621;28;20102;-69
2021/09/07 05:00:05;;;;;;;65.75;27.30;;;;;;;13.85;100.00;102491.13;5053155;28;20045;-69
2021/09/07 05:02:36;;;;;;;62.17;28.48;;;;;;;13.88;100.00;102489.25;5047334;28;20098;-69
2021/09/07 05:05:06;;;;;;;60.00;29.08;;;;;;;13.90;100.00;102487.41;5052647;28;20071;-69
2021/09/07 05:07:36;;;;;;;60.15;28.83;;;;;;;13.97;100.00;102490.88;5050788;28;20045;-69
2021/09/07 05:10:05;;;;;;;59.78;25.88;;;;;;;13.97;100.00;102489.06;5050358;28;20052;-69
2021/09/07 05:12:33;;;;;;;62.78;27.70;;;;;;;13.99;100.00;102480.97;5049178;28;20139;-69
2021/09/07 05:15:01;;;;;;;58.53;28.90;;;;;;;14.04;100.00;102475.53;5050585;28;20052;-70
2021/09/07 05:17:30;;;;;;;61.45;28.08;;;;;;;14.07;100.00;102473.66;5051928;28;20045;-69
2021/09/07 05:19:58;;;;;;;54.20;26.27;;;;;;;14.11;100.00;102485.22;5051210;28;20063;-70
2021/09/07 05:22:26;;;;;;;63.38;28.38;;;;;;;14.13;100.00;102486.06;5051334;28;20052;-69
2021/09/07 05:24:55;;;;;;;63.65;27.92;;;;;;;14.19;100.00;102491.31;5053121;28;20076;-69
2021/09/07 05:27:23;;;;;;;61.63;27.70;;;;;;;14.24;100.00;102491.22;5053417;28;20052;-69
2021/09/07 05:29:51;;;;;;;62.33;29.33;;;;;;;14.31;100.00;102495.53;5049515;28;20053;-69
2021/09/07 05:32:21;;;;;;;60.85;28.55;;;;;;;14.34;100.00;102498.16;5052745;28;20494;-69
2021/09/07 05:34:49;;;;;;;59.03;26.67;;;;;;;14.41;100.00;102497.09;5055307;28;20073;-69
2021/09/07 05:37:17;;;;;;;58.30;28.27;;;;;;;14.52;100.00;102492.38;5051058;28;20198;-70
2021/09/07 05:39:44;;;;;;;63.15;29.73;;;;;;;14.63;100.00;102489.47;5054209;28;20187;-69
2021/09/07 05:42:14;;;;;;;59.33;28.73;;;;;;;14.73;100.00;102492.84;5055826;28;20504;-69
2021/09/07 05:44:42;;;;;;;66.13;30.70;;;;;;;14.80;100.00;102498.97;5048190;28;20443;-70
2021/09/07 05:47:10;;;;;;;66.05;30.55;;;;;;;14.87;100.00;102500.59;5053170;28;20491;-69
2021/09/07 05:49:38;;;;;;;65.13;30.75;;;;;;;14.93;100.00;102500.41;5052084;28;20655;-69
2021/09/07 05:52:06;;;;;;;68.00;32.35;;;;;;;15.00;100.00;102494.00;5055525;28;20114;-69
2021/09/07 05:54:34;;;;;;;66.68;30.70;;;;;;;15.06;100.00;102501.88;5051869;28;20056;-69
2021/09/07 05:57:02;;;;;;;71.30;32.75;;;;;;;15.15;100.00;102502.59;5051347;28;20119;-70
2021/09/07 05:59:31;;;;;;;63.80;31.55;;;;;;;15.20;99.45;102504.22;5056105;28;20078;-69
2021/09/07 06:01:59;;;;;;;69.20;31.38;;;;;;;15.26;99.24;102504.09;5051950;28;20052;-69
2021/09/07 06:04:27;;;;;;;69.30;32.90;;;;;;;15.35;99.43;102511.03;5054576;28;20049;-69
2021/09/07 06:06:55;;;;;;;61.40;31.17;;;;;;;15.39;98.89;102501.97;5049460;28;20467;-69
2021/09/07 06:09:23;;;;;;;69.18;31.05;;;;;;;15.46;98.81;102499.97;5054604;28;20048;-69
2021/09/07 06:11:50;;;;;;;60.47;30.75;;;;;;;15.50;98.36;102502.56;5054503;28;20079;-69
2021/09/07 06:14:18;;;;;;;61.83;28.95;;;;;;;15.59;98.31;102501.44;5051607;28;20048;-69
2021/09/07 06:16:47;;;;;;;65.00;31.00;;;;;;;15.67;97.87;102501.25;5051794;28;20071;-69
2021/09/07 06:19:15;;;;;;;64.80;32.13;;;;;;;15.75;97.36;102503.72;5049011;28;20056;-69
2021/09/07 06:21:43;;;;;;;61.85;30.38;;;;;;;15.86;96.50;102501.66;5050579;28;20096;-69
2021/09/07 06:24:10;;;;;;;55.22;26.92;;;;;;;15.94;96.19;102499.63;5050873;28;20084;-69
2021/09/07 06:26:38;;;;;;;62.67;30.35;;;;;;;16.05;96.06;102500.19;5049518;28;20059;-69
2021/09/07 06:29:06;;;;;;;66.47;31.00;;;;;;;16.17;95.32;102498.06;5049682;28;20298;-70
2021/09/07 06:31:34;;;;;;;56.20;26.48;;;;;;;16.25;94.62;102496.03;5051891;28;20393;-69
2021/09/07 06:34:03;;;;;;;62.00;28.73;;;;;;;16.34;94.08;102489.50;5052228;28;20067;-70
2021/09/07 06:36:31;;;;;;;61.92;29.90;;;;;;;16.42;93.58;102493.72;5054821;28;20140;-69
2021/09/07 06:38:58;;;;;;;60.28;29.10;;;;;;;16.53;93.42;102497.91;5050999;28;20052;-69
2021/09/07 06:41:26;;;;;;;60.95;29.60;;;;;;;16.65;93.22;102504.72;5052066;28;20045;-69
2021/09/07 06:43:54;;;;;;;61.72;29.58;;;;;;;16.73;92.03;102499.97;5050261;28;20562;-69
2021/09/07 06:46:22;;;;;;;56.35;27.15;;;;;;;16.87;92.42;102504.94;5051833;28;20060;-69
2021/09/07 06:48:50;;;;;;;56.22;26.95;;;;;;;17.03;91.79;102503.53;5049537;28;20072;-68
2021/09/07 06:51:19;;;;;;;61.28;30.52;;;;;;;17.09;90.46;102506.00;5049371;28;20053;-70
2021/09/07 06:53:47;;;;;;;57.95;27.60;;;;;;;17.32;89.34;102509.78;5050044;28;20060;-70
2021/09/07 06:56:14;;;;;;;57.38;28.55;;;;;;;17.50;87.44;102514.53;5046214;28;20053;-70
2021/09/07 06:58:42;;;;;;;57.85;28.42;;;;;;;17.43;88.03;102512.09;5053999;28;20127;-70
2021/09/07 07:01:10;;;;;;;56.58;28.67;;;;;;;17.41;88.27;102512.13;5051643;28;20431;-69
2021/09/07 07:03:38;;;;;;;56.13;26.83;;;;;;;17.39;87.63;102511.31;5052358;28;20156;-70
2021/09/07 07:06:06;;;;;;;55.00;26.25;;;;;;;17.39;87.95;102510.44;5051668;28;20080;-68
2021/09/07 07:08:35;;;;;;;52.30;25.60;;;;;;;17.46;88.44;102522.78;5049369;28;20116;-69
2021/09/07 07:11:03;;;;;;;54.67;28.00;;;;;;;17.50;87.19;102513.63;5049107;28;20060;-68
2021/09/07 07:13:31;;;;;;;57.28;26.40;;;;;;;17.58;87.42;102516.09;5051125;28;20378;-66
2021/09/07 07:15:59;;;;;;;49.28;27.45;;;;;;;18.02;87.11;102516.34;5051606;28;20052;-66
2021/09/07 07:18:27;;;;;;;60.45;28.80;;;;;;;18.23;85.29;102503.84;5053395;28;20067;-66
2021/09/07 07:20:55;;;;;;;54.47;26.77;;;;;;;18.53;83.93;102509.00;5049616;28;20147;-64
2021/09/07 07:23:22;;;;;;;57.30;27.60;;;;;;;18.84;80.66;102505.97;5049151;28;20052;-68
2021/09/07 07:25:52;;;;;;;54.95;26.80;;;;;;;19.30;79.87;102523.00;5050774;28;20637;-64
2021/09/07 07:28:20;;;;;;;58.53;27.90;;;;;;;19.12;78.35;102519.28;5049707;28;20048;-64
2021/09/07 07:30:48;;;;;;;52.15;27.23;;;;;;;19.59;76.92;102526.28;5050063;28;20052;-68
2021/09/07 07:33:15;;;;;;;49.53;25.70;;;;;;;19.93;76.80;102519.44;5050698;28;20059;-64
2021/09/07 07:35:43;;;;;;;50.35;25.35;;;;;;;20.21;73.70;102518.16;5048866;28;20061;-65
2021/09/07 07:38:11;;;;;;;49.55;26.25;;;;;;;20.37;73.08;102521.91;5049132;28;20107;-64
2021/09/07 07:40:39;;;;;;;47.13;24.13;;;;;;;20.75;73.58;102527.38;5050497;28;20397;-64
2021/09/07 07:43:08;;;;;;;47.47;24.92;;;;;;;20.87;70.29;102526.78;5052078;28;20492;-64
2021/09/07 07:45:36;;;;;;;48.42;24.30;;;;;;;20.93;69.86;102525.59;5048994;28;20139;-68
2021/09/07 07:48:05;;;;;;;45.78;23.90;;;;;;;21.08;69.70;102522.13;5048915;28;20738;-68
2021/09/07 07:50:33;;;;;;;52.40;24.60;;;;;;;20.98;68.53;102515.41;5050600;28;20048;-65
2021/09/07 07:53:02;;;;;;;41.97;23.70;;;;;;;21.44;69.38;102536.63;5047379;28;20079;-65
2021/09/07 07:55:31;;;;;;;41.28;23.15;;;;;;;21.71;66.77;102528.03;5052704;28;20127;-69
2021/09/07 07:58:03;;;;;;;45.35;23.77;;;;;;;21.91;66.26;102529.69;5048959;28;20048;-65
2021/09/07 08:00:32;;;;;;;41.42;21.95;;;;;;;21.95;65.51;102537.59;5052963;28;20484;-65
2021/09/07 08:03:00;;;;;;;41.92;22.17;;;;;;;22.07;63.93;102527.91;5050668;28;20048;-64
2021/09/07 08:05:36;;;;;;;40.85;22.20;;;;;;;22.10;63.35;102530.47;5052000;28;20068;-65
2021/09/07 08:08:05;;;;;;;38.33;21.10;;;;;;;22.35;61.41;102526.44;5049198;28;20086;-65
2021/09/07 08:10:33;;;;;;;43.10;22.20;;;;;;;22.57;61.70;102526.09;5051127;28;20045;-68
2021/09/07 08:13:01;;;;;;;44.28;21.88;;;;;;;22.76;62.00;102531.38;5050570;28;20053;-69
2021/09/07 08:15:29;;;;;;;38.60;21.58;;;;;;;22.71;61.41;102531.66;5048635;28;20053;-69
2021/09/07 08:17:59;;;;;;;42.13;22.27;;;;;;;22.45;59.76;102535.81;5052513;28;20044;-69
2021/09/07 08:20:29;;;;;;;41.72;22.33;;;;;;;22.41;60.62;102533.34;5052017;28;20044;-65
2021/09/07 08:22:57;;;;;;;44.55;22.98;;;;;;;22.75;58.95;102532.34;5047816;28;20579;-68
2021/09/07 08:25:24;;;;;;;41.05;22.48;;;;;;;22.98;58.06;102525.56;5047510;28;20113;-69
2021/09/07 08:27:52;;;;;;;40.10;21.35;;;;;;;23.22;57.65;102536.03;5045919;28;20134;-69
2021/09/07 08:30:20;;;;;;;40.47;20.77;;;;;;;23.66;58.46;102532.47;5050134;28;20583;-68
2021/09/07 08:32:48;;;;;;;36.78;21.42;;;;;;;23.88;55.47;102529.34;5050774;28;20524;-69
2021/09/07 08:35:17;;;;;;;38.92;21.60;;;;;;;23.72;56.02;102521.22;5049666;28;20122;-65
2021/09/07 08:37:45;;;;;;;36.40;20.80;;;;;;;23.72;56.71;102518.50;5048154;28;20143;-66
2021/09/07 08:40:13;;;;;;;36.97;19.48;;;;;;;23.58;56.81;102522.06;5050170;28;20159;-70
2021/09/07 08:42:41;;;;;;;36.78;18.95;;;;;;;23.47;56.67;102528.16;5054106;28;20135;-70
2021/09/07 08:45:12;;;;;;;34.53;18.23;;;;;;;23.35;57.29;102531.63;5048249;28;20131;-70
2021/09/07 08:47:40;;;;;;;35.88;20.10;;;;;;;23.36;55.28;102525.22;5054185;28;20057;-66
2021/09/07 08:50:09;;;;;;;35.22;18.55;;;;;;;22.85;55.49;102527.25;5053634;28;20052;-66
2021/09/07 08:52:38;;;;;;;32.42;16.95;;;;;;;23.42;54.41;102529.41;5048797;28;20060;-66
2021/09/07 08:55:07;;;;;;;34.55;18.38;;;;;;;23.58;55.70;102523.91;5056329;28;20176;-66
2021/09/07 08:57:37;;;;;;;37.10;20.08;;;;;;;23.77;55.27;102524.53;5050328;28;20057;-66
2021/09/07 09:00:07;;;;;;;39.17;18.98;;;;;;;24.45;54.90;102524.88;5054204;28;20489;-67
2021/09/07 09:02:41;;;;;;;42.33;20.73;;;;;;;24.51;52.19;102524.50;5052027;28;20056;-70
2021/09/07 09:05:10;;;;;;;34.60;17.98;;;;;;;25.00;51.40;102517.69;5057255;28;20469;-66
2021/09/07 09:07:40;;;;;;;36.75;19.95;;;;;;;24.95;50.92;102520.72;5057011;28;20056;-70
2021/09/07 09:10:18;;;;;;;37.17;20.77;;;;;;;24.61;50.89;102523.81;5052164;28;20047;-70
2021/09/07 09:12:46;;;;;;;36.13;19.77;;;;;;;24.29;51.95;102531.31;5055064;28;20060;-71
2021/09/07 09:15:16;;;;;;;35.55;19.90;;;;;;;24.21;51.59;102529.09;5056014;28;20130;-66
2021/09/07 09:17:44;;;;;;;36.28;18.52;;;;;;;24.79;50.89;102521.75;5050518;28;20390;-66
2021/09/07 09:20:16;;;;;;;31.45;18.00;;;;;;;24.98;49.94;102528.72;5047520;28;20060;-70
2021/09/07 09:22:48;;;;;;;34.05;18.48;;;;;;;24.79;48.52;102526.31;5054888;28;20505;-66
2021/09/07 09:25:37;;;;;;;32.47;17.60;;;;;;;25.15;47.94;102524.84;5053091;28;20164;-66
2021/09/07 09:28:13;;;;;;;30.88;17.50;;;;;;;25.40;47.04;102526.78;5045730;28;20088;-66
2021/09/07 09:30:42;;;;;;;31.00;17.83;;;;;;;25.70;46.98;102526.53;5052221;28;20402;-70
2021/09/07 09:33:12;;;;;;;31.40;17.98;;;;;;;25.83;46.41;102518.34;5051752;28;20059;-70
2021/09/07 09:35:45;;;;;;;32.65;17.42;;;;;;;26.09;46.15;102523.84;5052584;28;20053;-66
2021/09/07 09:38:15;;;;;;;32.38;17.20;;;;;;;26.15;45.29;102515.19;5047954;28;20076;-66
2021/09/07 09:40:43;;;;;;;34.35;17.63;;;;;;;26.01;44.94;102512.59;5056927;28;20109;-66
2021/09/07 09:43:22;;;;;;;31.58;17.95;;;;;;;25.97;45.76;102511.06;5055646;28;20048;-70
2021/09/07 09:45:51;;;;;;;33.60;18.15;;;;;;;25.96;45.19;102514.78;5050585;28;20420;-66
2021/09/07 09:48:27;;;;;;;34.78;18.70;;;;;;;25.90;45.22;102510.59;5052720;28;20554;-65
2021/09/07 09:50:56;;;;;;;33.97;19.40;;;;;;;26.09;44.61;102501.97;5051017;28;20445;-65
2021/09/07 09:53:27;;;;;;;30.92;18.13;;;;;;;26.24;44.07;102500.84;5054635;28;20055;-65
2021/09/07 09:55:56;;;;;;;33.88;18.50;;;;;;;26.50;43.89;102499.94;5054456;28;20052;-70
2021/09/07 09:58:26;;;;;;;30.60;17.83;;;;;;;26.31;43.46;102494.94;5054395;28;20743;-66
2021/09/07 10:00:54;;;;;;;28.92;17.50;;;;;;;26.28;43.30;102504.25;5055424;28;20306;-66
2021/09/07 10:03:23;;;;;;;30.05;17.25;;;;;;;26.54;42.95;102493.25;5051816;28;20052;-69
2021/09/07 10:05:52;;;;;;;32.88;17.55;;;;;;;26.51;42.30;102485.25;5050849;28;20578;-69
2021/09/07 10:08:21;;;;;;;33.08;19.85;;;;;;;26.47;42.39;102488.22;5050172;28;20189;-68
2021/09/07 10:10:57;;;;;;;29.63;16.55;;;;;;;26.89;43.37;102485.16;5053340;28;20040;-68
2021/09/07 10:13:27;;;;;;;31.73;18.55;;;;;;;26.91;42.61;102494.13;5048978;28;20055;-69
2021/09/07 10:15:58;;;;;;;31.85;18.35;;;;;;;27.26;42.43;102492.41;5051244;28;20044;-65
2021/09/07 10:18:44;;;;;;;31.50;18.40;;;;;;;27.38;42.49;102492.38;5053840;28;20110;-65
2021/09/07 10:22:58;;;;;;;30.58;18.27;;;;;;;27.72;41.51;102486.09;5052554;28;20049;-69
2021/09/07 10:24:13;;;;;;;32.20;18.30;;;;;;;27.77;41.53;102486.63;5049743;28;20056;-69
2021/09/07 10:26:55;;;;;;;32.42;18.08;;;;;;;27.60;41.66;102487.97;5052995;28;20508;-69
2021/09/07 10:29:44;;;;;;;31.67;17.70;;;;;;;27.90;41.23;102500.22;5051986;28;20052;-65
2021/09/07 10:32:32;;;;;;;31.05;18.42;;;;;;;28.01;40.71;102492.03;5052870;28;20163;-69
2021/09/07 10:35:07;;;;;;;34.58;18.83;;;;;;;27.88;40.97;102486.63;5047688;28;20108;-69
2021/09/07 10:38:10;;;;;;;26.95;16.45;;;;;;;28.27;40.09;102481.66;5051700;28;20049;-69
2021/09/07 10:40:47;;;;;;;29.42;18.38;;;;;;;28.15;39.20;102490.03;5053077;28;20057;-64
2021/09/07 10:46:08;;;;;;;28.80;16.33;;;;;;;28.00;38.67;102478.44;5065232;27;20407;-65
2021/09/07 10:48:36;;;;;;;27.40;16.05;;;;;;;28.04;38.40;102472.56;5049977;28;20056;-69
2021/09/07 10:51:04;;;;;;;30.23;18.27;;;;;;;27.85;39.09;102473.13;5054587;28;20087;-65
2021/09/07 10:53:32;;;;;;;27.75;16.33;;;;;;;27.93;39.13;102478.06;5051177;28;20501;-69
2021/09/07 10:56:26;;;;;;;28.27;16.08;;;;;;;27.77;39.64;102476.50;5055727;28;20064;-69
2021/09/07 10:58:54;;;;;;;;;;;;;;;28.00;38.89;102472.94;5051301;28;20080;-68
2021/09/07 11:01:27;;;;;;;25.65;14.98;;;;;;;27.97;38.88;102470.44;5054404;28;19925;-69
2021/09/07 11:04:30;;;;;;;25.38;15.57;;;;;;;28.25;39.12;102461.72;5051731;28;20052;-69
2021/09/07 11:06:59;;;;;;;26.65;15.60;;;;;;;28.16;38.64;102451.47;5054018;28;20064;-65
2021/09/07 11:09:50;;;;;;;26.77;16.00;;;;;;;27.76;39.66;102460.19;5053423;28;20520;-69
2021/09/07 11:12:32;;;;;;;30.95;16.42;;;;;;;28.30;38.91;102445.75;5051938;28;20052;-65
2021/09/07 11:15:04;;;;;;;30.35;17.45;;;;;;;28.37;38.17;102445.25;5051136;28;20056;-70
2021/09/07 11:17:34;;;;;;;27.73;16.67;;;;;;;28.24;38.85;102448.13;5050327;28;20128;-69
2021/09/07 11:20:06;;;;;;;28.88;16.88;;;;;;;28.35;38.92;102444.47;5054706;28;20051;-65
2021/09/07 11:22:37;;;;;;;26.02;15.88;;;;;;;28.61;38.35;102451.44;5052262;28;20040;-65